createdAt,value
2022-12-03T00:00:15.057Z,95142.06
2022-12-03T00:02:43.046Z,95123.56
2022-12-03T00:05:11.844Z,95139.31
2022-12-03T00:07:39.673Z,95131.53
2022-12-03T00:10:10.104Z,95129.78
2022-12-03T00:12:37.979Z,95130.06
2022-12-03T00:15:07.116Z,95139.69
2022-12-03T00:17:38.041Z,95133.53
2022-12-03T00:20:07.380Z,95134.53
2022-12-03T00:22:37.669Z,95144.22
2022-12-03T00:25:06.183Z,95133.41
2022-12-03T00:27:35.349Z,95143.59
2022-12-03T00:30:03.174Z,95134.19
2022-12-03T00:32:30.950Z,95143.75
2022-12-03T00:34:58.805Z,95146.28
2022-12-03T00:37:26.676Z,95143.19
2022-12-03T00:39:54.481Z,95135.72
2022-12-03T00:42:22.303Z,95144.06
2022-12-03T00:44:52.019Z,95145.59
2022-12-03T00:47:20.138Z,95154.69
2022-12-03T00:49:47.948Z,95142.00
2022-12-03T00:52:15.718Z,95138.78
2022-12-03T00:54:43.584Z,95122.00
2022-12-03T00:57:11.454Z,95138.72
2022-12-03T00:59:42.027Z,95150.59
2022-12-03T01:02:11.313Z,95146.91
2022-12-03T01:04:39.163Z,95151.25
2022-12-03T01:07:07.109Z,95147.63
2022-12-03T01:09:34.948Z,95154.50
2022-12-03T01:12:02.743Z,95146.34
2022-12-03T01:14:30.461Z,95150.59
2022-12-03T01:16:58.333Z,95153.25
2022-12-03T01:19:27.554Z,95140.84
2022-12-03T01:21:56.360Z,95151.88
2022-12-03T01:24:24.229Z,95144.41
2022-12-03T01:26:52.067Z,95147.88
2022-12-03T01:29:19.853Z,95149.31
2022-12-03T01:32:04.949Z,95156.38
2022-12-03T01:34:34.164Z,95134.78
2022-12-03T01:37:01.902Z,95162.38
2022-12-03T01:39:29.838Z,95155.44
2022-12-03T01:41:59.122Z,95151.41
2022-12-03T01:44:28.978Z,95157.75
2022-12-03T01:46:59.363Z,95155.28
2022-12-03T01:49:31.115Z,95150.09
2022-12-03T01:52:01.188Z,95159.84
2022-12-03T01:54:37.885Z,95148.88
2022-12-03T01:57:06.198Z,95153.50
2022-12-03T01:59:38.782Z,95146.50
2022-12-03T02:02:13.931Z,95134.81
2022-12-03T02:04:41.986Z,95152.56
2022-12-03T02:07:26.397Z,95148.59
2022-12-03T02:09:56.463Z,95146.84
2022-12-03T02:12:27.944Z,95161.72
2022-12-03T02:14:56.151Z,95150.75
2022-12-03T02:17:24.217Z,95156.75
2022-12-03T02:19:52.598Z,95151.47
2022-12-03T02:22:32.006Z,95155.88
2022-12-03T02:25:17.563Z,95150.69
2022-12-03T02:27:46.387Z,95159.22
2022-12-03T02:30:17.026Z,95155.28
2022-12-03T02:32:44.887Z,95160.06
2022-12-03T02:35:17.237Z,95152.75
2022-12-03T02:37:47.084Z,95159.91
2022-12-03T02:40:19.891Z,95153.44
2022-12-03T02:42:49.173Z,95150.97
2022-12-03T02:45:21.477Z,95151.09
2022-12-03T02:47:52.639Z,95151.03
2022-12-03T02:50:23.044Z,95148.88
2022-12-03T02:52:53.820Z,95149.59
2022-12-03T02:55:24.166Z,95143.09
2022-12-03T02:57:52.716Z,95142.59
2022-12-03T03:00:22.971Z,95138.22
2022-12-03T03:02:51.696Z,95142.50
2022-12-03T03:05:22.840Z,95150.53
2022-12-03T03:07:52.058Z,95156.97
2022-12-03T03:10:24.471Z,95153.22
2022-12-03T03:12:55.209Z,95155.94
2022-12-03T03:15:24.473Z,95153.34
2022-12-03T03:17:52.649Z,95145.09
2022-12-03T03:20:21.181Z,95148.94
2022-12-03T03:22:49.347Z,95143.84
2022-12-03T03:25:21.287Z,95125.09
2022-12-03T03:27:50.471Z,95132.94
2022-12-03T03:30:18.456Z,95130.72
2022-12-03T03:32:46.488Z,95129.38
2022-12-03T03:35:14.913Z,95131.59
2022-12-03T03:37:43.388Z,95137.44
2022-12-03T03:40:12.322Z,95146.41
2022-12-03T03:42:40.514Z,95132.31
2022-12-03T03:45:11.735Z,95127.75
2022-12-03T03:47:40.145Z,95131.56
2022-12-03T03:50:11.342Z,95132.16
2022-12-03T03:52:40.800Z,95131.44
2022-12-03T03:55:11.385Z,95131.28
2022-12-03T03:57:39.953Z,95133.00
2022-12-03T04:00:10.979Z,95136.91
2022-12-03T04:02:39.154Z,95126.09
2022-12-03T04:05:07.832Z,95136.38
2022-12-03T04:07:35.801Z,95134.97
2022-12-03T04:10:24.643Z,95131.81
2022-12-03T04:12:57.495Z,95118.00
2022-12-03T04:15:27.282Z,95113.16
2022-12-03T04:18:09.244Z,95106.69
2022-12-03T04:20:37.376Z,95119.88
2022-12-03T04:23:04.658Z,95116.69
2022-12-03T04:25:46.573Z,95117.03
2022-12-03T04:28:32.138Z,95126.75
2022-12-03T04:31:22.070Z,95131.28
2022-12-03T04:34:07.274Z,95139.81
2022-12-03T04:36:35.140Z,95137.84
2022-12-03T04:39:03.071Z,95135.47
2022-12-03T04:41:30.959Z,95130.78
2022-12-03T04:44:16.128Z,95135.13
2022-12-03T04:46:45.412Z,95141.63
2022-12-03T04:49:13.919Z,95143.44
2022-12-03T04:51:41.793Z,95143.66
2022-12-03T04:54:09.688Z,95138.19
2022-12-03T04:56:38.091Z,95145.41
2022-12-03T04:59:08.090Z,95125.94
2022-12-03T05:01:39.408Z,95138.22
2022-12-03T05:04:08.931Z,95144.78
2022-12-03T05:06:36.754Z,95141.03
2022-12-03T05:09:05.107Z,95139.28
2022-12-03T05:11:33.229Z,95147.59
2022-12-03T05:14:01.280Z,95142.72
2022-12-03T05:16:29.871Z,95144.78
2022-12-03T05:18:57.907Z,95145.81
2022-12-03T05:21:26.213Z,95139.00
2022-12-03T05:23:54.028Z,95148.44
2022-12-03T05:26:21.942Z,95141.78
2022-12-03T05:28:50.096Z,95151.63
2022-12-03T05:31:18.037Z,95156.88
2022-12-03T05:33:45.906Z,95153.25
2022-12-03T05:36:13.788Z,95157.53
2022-12-03T05:38:42.994Z,95162.44
2022-12-03T05:41:24.963Z,95150.69
2022-12-03T05:43:52.988Z,95142.06
2022-12-03T05:46:20.919Z,95136.31
2022-12-03T05:48:50.030Z,95153.91
2022-12-03T05:51:17.935Z,95163.84
2022-12-03T05:53:47.159Z,95163.34
2022-12-03T05:56:15.034Z,95162.69
2022-12-03T05:58:42.891Z,95164.31
2022-12-03T06:01:12.710Z,95149.94
2022-12-03T06:03:40.756Z,95146.44
2022-12-03T06:06:09.221Z,95145.84
2022-12-03T06:08:37.038Z,95151.00
2022-12-03T06:11:06.770Z,95142.38
2022-12-03T06:13:36.951Z,95145.44
2022-12-03T06:16:05.361Z,95138.66
2022-12-03T06:18:33.263Z,95139.59
2022-12-03T06:21:03.736Z,95129.19
2022-12-03T06:23:31.649Z,95137.28
2022-12-03T06:25:59.500Z,95138.50
2022-12-03T06:28:28.771Z,95138.78
2022-12-03T06:30:56.785Z,95129.31
2022-12-03T06:33:24.682Z,95128.16
2022-12-03T06:35:52.807Z,95147.84
2022-12-03T06:38:20.618Z,95142.47
2022-12-03T06:40:49.973Z,95143.72
2022-12-03T06:43:17.965Z,95138.34
2022-12-03T06:45:48.066Z,95133.78
2022-12-03T06:48:16.269Z,95126.78
2022-12-03T06:50:44.149Z,95128.53
2022-12-03T06:53:12.070Z,95129.44
2022-12-03T06:55:40.073Z,95138.41
2022-12-03T06:58:07.947Z,95137.59
2022-12-03T07:00:35.829Z,95133.81
2022-12-03T07:03:05.238Z,95139.66
2022-12-03T07:05:33.141Z,95137.84
2022-12-03T07:08:01.279Z,95132.28
2022-12-03T07:10:29.313Z,95130.78
2022-12-03T07:12:57.273Z,95130.34
2022-12-03T07:15:25.232Z,95135.31
2022-12-03T07:17:53.113Z,95134.34
2022-12-03T07:20:22.488Z,95140.75
2022-12-03T07:22:50.583Z,95138.38
2022-12-03T07:25:23.099Z,95144.47
2022-12-03T07:27:52.007Z,95140.47
2022-12-03T07:30:20.100Z,95140.28
2022-12-03T07:32:48.299Z,95138.22
2022-12-03T07:35:16.238Z,95138.06
2022-12-03T07:37:45.548Z,95142.19
2022-12-03T07:40:14.385Z,95155.78
2022-12-03T07:42:42.331Z,95145.28
2022-12-03T07:45:11.472Z,95141.25
2022-12-03T07:47:39.276Z,95130.69
2022-12-03T07:50:08.338Z,95143.94
2022-12-03T07:52:36.225Z,95142.44
2022-12-03T07:55:06.387Z,95142.34
2022-12-03T07:57:34.276Z,95134.47
2022-12-03T08:02:54.423Z,95135.94
2022-12-03T08:05:22.274Z,95133.03
2022-12-03T08:07:50.403Z,95141.50
2022-12-03T08:10:19.927Z,95135.56
2022-12-03T08:12:48.180Z,95139.59
2022-12-03T08:15:18.501Z,95135.47
2022-12-03T08:17:48.316Z,95119.44
2022-12-03T08:20:18.840Z,95122.41
2022-12-03T08:22:48.788Z,95115.56
2022-12-03T08:25:22.971Z,95128.28
2022-12-03T08:27:52.245Z,95141.13
2022-12-03T08:30:20.621Z,95144.28
2022-12-03T08:32:49.130Z,95140.09
2022-12-03T08:35:23.240Z,95143.09
2022-12-03T08:37:58.582Z,95140.47
2022-12-03T08:40:35.660Z,95139.53
2022-12-03T08:43:17.878Z,95149.22
2022-12-03T08:45:46.324Z,95142.25
2022-12-03T08:48:25.875Z,95135.00
2022-12-03T08:50:56.462Z,95134.47
2022-12-03T08:53:34.020Z,95139.97
2022-12-03T08:56:05.871Z,95134.84
2022-12-03T08:58:38.467Z,95142.72
2022-12-03T09:01:40.364Z,95141.56
2022-12-03T09:04:28.125Z,95141.69
2022-12-03T09:06:56.487Z,95138.59
2022-12-03T09:09:25.050Z,95140.84
2022-12-03T09:11:54.934Z,95139.84
2022-12-03T09:14:23.772Z,95135.53
2022-12-03T09:16:55.470Z,95142.38
2022-12-03T09:19:24.177Z,95156.16
2022-12-03T09:21:54.792Z,95148.44
2022-12-03T09:24:22.982Z,95143.97
2022-12-03T09:26:51.055Z,95141.56
2022-12-03T09:29:20.437Z,95145.09
2022-12-03T09:31:48.461Z,95140.97
2022-12-03T09:34:16.376Z,95141.22
2022-12-03T09:36:44.291Z,95139.84
2022-12-03T09:39:12.326Z,95136.44
2022-12-03T09:41:40.412Z,95123.28
2022-12-03T09:44:11.046Z,95120.03
2022-12-03T09:46:45.803Z,95107.13
2022-12-03T09:49:16.426Z,95127.97
2022-12-03T09:51:45.738Z,95130.69
2022-12-03T09:54:23.066Z,95125.56
2022-12-03T09:56:51.469Z,95114.28
2022-12-03T09:59:23.932Z,95122.59
2022-12-03T10:01:53.816Z,95120.59
2022-12-03T10:04:22.659Z,95122.28
2022-12-03T10:06:51.064Z,95114.38
2022-12-03T10:09:26.011Z,95115.28
2022-12-03T10:11:54.288Z,95106.59
2022-12-03T10:14:22.243Z,95101.09
2022-12-03T10:16:50.792Z,95096.81
2022-12-03T10:19:24.691Z,95095.56
2022-12-03T10:21:53.231Z,95098.66
2022-12-03T10:24:24.201Z,95094.16
2022-12-03T10:26:53.748Z,95097.25
2022-12-03T10:29:25.864Z,95097.63
2022-12-03T10:31:59.468Z,95077.47
2022-12-03T10:34:31.617Z,95075.59
2022-12-03T10:37:11.560Z,95090.72
2022-12-03T10:39:57.739Z,95088.50
2022-12-03T10:42:26.567Z,95077.72
2022-12-03T10:45:15.496Z,95083.72
2022-12-03T10:47:44.397Z,95076.19
2022-12-03T10:50:20.602Z,95074.69
2022-12-03T10:52:48.596Z,95068.69
2022-12-03T10:55:17.477Z,95062.97
2022-12-03T10:57:47.051Z,95071.50
2022-12-03T11:00:18.340Z,95067.41
2022-12-03T11:02:51.732Z,95061.19
2022-12-03T11:05:27.829Z,95061.75
2022-12-03T11:07:56.877Z,95057.09
2022-12-03T11:10:25.290Z,95059.94
2022-12-03T11:13:43.404Z,95055.34
2022-12-03T11:16:11.423Z,95055.03
2022-12-03T11:19:04.948Z,95060.41
2022-12-03T11:21:34.225Z,95055.38
2022-12-03T11:24:21.637Z,95052.38
2022-12-03T11:27:22.053Z,95061.78
2022-12-03T11:30:00.906Z,95052.66
2022-12-03T11:33:06.244Z,95052.91
2022-12-03T11:36:06.759Z,95055.91
2022-12-03T11:38:52.399Z,95045.97
2022-12-03T11:41:42.786Z,95042.50
2022-12-03T11:44:30.214Z,95041.94
2022-12-03T11:47:10.011Z,95038.28
2022-12-03T11:49:46.828Z,95046.16
2022-12-03T11:52:24.985Z,95044.28
2022-12-03T11:54:59.926Z,95042.28
2022-12-03T11:57:32.670Z,95035.16
2022-12-03T12:00:07.767Z,95031.50
2022-12-03T12:02:42.791Z,95032.16
2022-12-03T12:05:30.501Z,95040.81
2022-12-03T12:07:59.781Z,95043.53
2022-12-03T12:10:45.133Z,95032.16
2022-12-03T12:13:57.458Z,95031.28
2022-12-03T12:16:53.726Z,95024.56
2022-12-03T12:19:41.182Z,95030.84
2022-12-03T12:22:30.827Z,95019.84
2022-12-03T12:25:00.019Z,95011.72
2022-12-03T12:27:35.794Z,94995.75
2022-12-03T12:30:06.530Z,95008.78
2022-12-03T12:32:36.029Z,95010.59
2022-12-03T12:35:16.672Z,94999.66
2022-12-03T12:37:56.786Z,95009.03
2022-12-03T12:40:28.780Z,95009.69
2022-12-03T12:43:05.341Z,95005.25
2022-12-03T12:45:37.896Z,95006.38
2022-12-03T12:48:16.721Z,95005.25
2022-12-03T12:50:46.745Z,94995.41
2022-12-03T12:53:25.255Z,94995.03
2022-12-03T12:55:57.468Z,94975.84
2022-12-03T12:58:29.806Z,94972.31
2022-12-03T13:01:01.917Z,94960.03
2022-12-03T13:03:33.843Z,94959.78
2022-12-03T13:06:03.706Z,94962.66
2022-12-03T13:08:33.502Z,94968.91
2022-12-03T13:11:03.073Z,94968.03
2022-12-03T13:13:43.523Z,94962.78
2022-12-03T13:16:17.199Z,94960.44
2022-12-03T13:18:48.443Z,94955.63
2022-12-03T13:21:39.180Z,94950.97
2022-12-03T13:24:27.940Z,94942.25
2022-12-03T13:26:56.560Z,94948.75
2022-12-03T13:29:27.978Z,94948.47
2022-12-03T13:31:58.800Z,94946.59
2022-12-03T13:34:28.404Z,94950.56
2022-12-03T13:36:58.357Z,94938.63
2022-12-03T13:39:31.783Z,94944.56
2022-12-03T13:42:33.197Z,94952.50
2022-12-03T13:45:04.086Z,94952.44
2022-12-03T13:47:33.472Z,94943.25
2022-12-03T13:50:04.323Z,94949.97
2022-12-03T13:52:35.776Z,94943.25
2022-12-03T13:55:05.183Z,94940.66
2022-12-03T13:57:33.293Z,94944.53
2022-12-03T14:00:02.984Z,94947.81
2022-12-03T14:02:40.526Z,94943.13
2022-12-03T14:05:08.929Z,94937.66
2022-12-03T14:07:36.827Z,94933.03
2022-12-03T14:10:05.334Z,94935.41
2022-12-03T14:12:35.061Z,94936.91
2022-12-03T14:15:07.389Z,94934.00
2022-12-03T14:17:35.447Z,94935.97
2022-12-03T14:20:04.307Z,94933.06
2022-12-03T14:22:59.463Z,94925.72
2022-12-03T14:25:28.304Z,94914.03
2022-12-03T14:27:56.559Z,94930.13
2022-12-03T14:30:25.893Z,94930.41
2022-12-03T14:32:53.828Z,94933.44
2022-12-03T14:35:21.699Z,94929.41
2022-12-03T14:37:49.740Z,94940.88
2022-12-03T14:40:21.376Z,94902.78
2022-12-03T14:42:50.043Z,94937.16
2022-12-03T14:45:17.981Z,94928.06
2022-12-03T14:47:47.282Z,94932.13
2022-12-03T14:50:15.380Z,94945.13
2022-12-03T14:52:43.421Z,94919.78
2022-12-03T14:55:11.341Z,94932.22
2022-12-03T14:57:39.264Z,94932.06
2022-12-03T15:00:09.723Z,94931.06
2022-12-03T15:02:37.757Z,94918.72
2022-12-03T15:05:08.080Z,94912.44
2022-12-03T15:07:36.436Z,94915.66
2022-12-03T15:10:04.821Z,94917.25
2022-12-03T15:12:32.850Z,94922.91
2022-12-03T15:15:01.285Z,94929.09
2022-12-03T15:17:32.120Z,94937.09
2022-12-03T15:20:00.333Z,94928.44
2022-12-03T15:22:29.733Z,94922.81
2022-12-03T15:24:57.808Z,94922.69
2022-12-03T15:27:26.349Z,94934.22
2022-12-03T15:29:54.516Z,94930.69
2022-12-03T15:32:22.902Z,94925.81
2022-12-03T15:34:51.343Z,94924.47
2022-12-03T15:37:19.215Z,94908.75
2022-12-03T15:39:49.043Z,94915.44
2022-12-03T15:42:17.082Z,94912.03
2022-12-03T15:44:47.006Z,94902.34
2022-12-03T15:47:14.879Z,94906.34
2022-12-03T15:49:42.887Z,94909.81
2022-12-03T15:52:12.726Z,94912.47
2022-12-03T15:54:40.931Z,94896.66
2022-12-03T15:57:10.174Z,94910.19
2022-12-03T15:59:38.861Z,94918.06
2022-12-03T16:02:07.117Z,94923.53
2022-12-03T16:04:35.102Z,94924.72
2022-12-03T16:07:03.136Z,94921.06
2022-12-03T16:09:31.164Z,94913.72
2022-12-03T16:11:59.224Z,94917.69
2022-12-03T16:14:28.393Z,94922.03
2022-12-03T16:16:56.341Z,94918.84
2022-12-03T16:19:24.290Z,94900.38
2022-12-03T16:21:52.192Z,94908.50
2022-12-03T16:24:20.138Z,94912.34
2022-12-03T16:26:47.995Z,94917.53
2022-12-03T16:29:16.092Z,94915.44
2022-12-03T16:31:45.925Z,94922.06
2022-12-03T16:34:13.858Z,94905.41
2022-12-03T16:36:41.823Z,94911.44
2022-12-03T16:39:09.816Z,94909.19
2022-12-03T16:41:37.707Z,94924.69
2022-12-03T16:44:06.330Z,94908.72
2022-12-03T16:46:34.447Z,94910.78
2022-12-03T16:49:04.090Z,94910.31
2022-12-03T16:51:31.910Z,94920.59
2022-12-03T16:53:59.753Z,94912.44
2022-12-03T16:56:27.595Z,94914.88
2022-12-03T16:58:55.451Z,94908.78
2022-12-03T17:01:24.257Z,94913.50
2022-12-03T17:03:52.463Z,94922.56
2022-12-03T17:06:21.938Z,94920.69
2022-12-03T17:08:50.215Z,94922.00
2022-12-03T17:11:18.917Z,94907.97
2022-12-03T17:13:47.024Z,94892.69
2022-12-03T17:16:15.146Z,94896.78
2022-12-03T17:18:43.884Z,94900.59
2022-12-03T17:21:12.016Z,94892.59
2022-12-03T17:23:41.357Z,94896.53
2022-12-03T17:26:09.213Z,94897.19
2022-12-03T17:28:37.006Z,94886.56
2022-12-03T17:31:05.024Z,94898.63
2022-12-03T17:33:32.947Z,94893.88
2022-12-03T17:36:01.329Z,94886.66
2022-12-03T17:38:31.614Z,94888.72
2022-12-03T17:41:04.897Z,94893.13
2022-12-03T17:43:32.781Z,94888.53
2022-12-03T17:46:01.305Z,94885.97
2022-12-03T17:48:31.134Z,94877.59
2022-12-03T17:50:59.133Z,94873.16
2022-12-03T17:53:26.932Z,94871.63
2022-12-03T17:55:54.907Z,94865.44
2022-12-03T17:58:24.183Z,94873.56
2022-12-03T18:00:53.977Z,94867.34
2022-12-03T18:03:23.856Z,94866.09
2022-12-03T18:05:51.636Z,94866.56
2022-12-03T18:08:19.480Z,94872.09
2022-12-03T18:10:47.423Z,94870.34
2022-12-03T18:13:15.216Z,94878.72
2022-12-03T18:15:44.480Z,94876.19
2022-12-03T18:18:12.581Z,94865.69
2022-12-03T18:20:40.444Z,94867.56
2022-12-03T18:23:08.383Z,94869.09
2022-12-03T18:25:36.832Z,94865.22
2022-12-03T18:28:05.060Z,94865.19
2022-12-03T18:30:32.885Z,94869.31
2022-12-03T18:33:02.042Z,94857.84
2022-12-03T18:35:31.499Z,94849.81
2022-12-03T18:37:59.562Z,94853.66
2022-12-03T18:40:30.432Z,94851.03
2022-12-03T18:42:58.724Z,94841.38
2022-12-03T18:45:26.868Z,94863.59
2022-12-03T18:47:54.819Z,94862.66
2022-12-03T18:50:24.315Z,94842.34
2022-12-03T18:52:52.218Z,94854.34
2022-12-03T18:55:21.071Z,94869.47
2022-12-03T18:57:49.450Z,94863.31
2022-12-03T19:00:17.766Z,94870.22
2022-12-03T19:03:02.626Z,94858.19
2022-12-03T19:05:33.703Z,94874.63
2022-12-03T19:08:02.474Z,94877.16
2022-12-03T19:10:30.367Z,94879.00
2022-12-03T19:12:58.456Z,94870.38
2022-12-03T19:15:26.248Z,94877.19
2022-12-03T19:17:56.678Z,94864.41
2022-12-03T19:20:24.515Z,94877.03
2022-12-03T19:22:53.696Z,94869.91
2022-12-03T19:25:21.479Z,94868.69
2022-12-03T19:27:50.780Z,94863.44
2022-12-03T19:30:18.946Z,94862.91
2022-12-03T19:32:48.633Z,94865.56
2022-12-03T19:35:16.674Z,94860.09
2022-12-03T19:37:46.299Z,94858.72
2022-12-03T19:40:16.397Z,94860.63
2022-12-03T19:42:44.260Z,94862.38
2022-12-03T19:45:12.675Z,94856.53
2022-12-03T19:47:40.521Z,94866.59
2022-12-03T19:50:09.652Z,94856.03
2022-12-03T19:52:37.769Z,94860.78
2022-12-03T19:55:06.412Z,94845.53
2022-12-03T19:57:35.524Z,94849.78
2022-12-03T20:00:09.894Z,94852.03
2022-12-03T20:02:40.353Z,94856.81
2022-12-03T20:05:08.514Z,94856.69
2022-12-03T20:07:36.491Z,94864.06
2022-12-03T20:10:05.237Z,94864.78
2022-12-03T20:12:33.806Z,94853.19
2022-12-03T20:15:02.955Z,94856.50
2022-12-03T20:17:30.782Z,94844.47
2022-12-03T20:19:58.565Z,94834.47
2022-12-03T20:22:26.369Z,94832.78
2022-12-03T20:24:54.095Z,94831.28
2022-12-03T20:27:23.098Z,94822.59
2022-12-03T20:29:51.097Z,94825.47
2022-12-03T20:32:20.414Z,94822.22
2022-12-03T20:34:49.572Z,94822.28
2022-12-03T20:37:17.557Z,94831.63
2022-12-03T20:39:45.586Z,94825.66
2022-12-03T20:42:13.429Z,94818.31
2022-12-03T20:44:41.210Z,94815.53
2022-12-03T20:47:08.985Z,94820.16
2022-12-03T20:49:39.019Z,94818.69
2022-12-03T20:52:07.016Z,94821.50
2022-12-03T20:54:34.852Z,94813.81
2022-12-03T20:57:02.748Z,94826.91
2022-12-03T20:59:31.609Z,94828.69
2022-12-03T21:01:59.608Z,94822.31
2022-12-03T21:04:27.492Z,94809.69
2022-12-03T21:06:56.683Z,94805.56
2022-12-03T21:09:24.486Z,94804.91
2022-12-03T21:11:52.358Z,94789.63
2022-12-03T21:14:20.227Z,94793.09
2022-12-03T21:19:37.303Z,94794.53
2022-12-03T21:22:06.998Z,94776.22
2022-12-03T21:24:35.532Z,94796.63
2022-12-03T21:27:03.359Z,94795.06
2022-12-03T21:29:31.271Z,94791.25
2022-12-03T21:31:59.320Z,94783.03
2022-12-03T21:34:31.295Z,94792.66
2022-12-03T21:37:02.123Z,94789.50
2022-12-03T21:39:31.311Z,94788.63
2022-12-03T21:42:34.837Z,94789.50
2022-12-03T21:44:46.986Z,94785.81
2022-12-03T21:47:14.855Z,94781.50
2022-12-03T21:49:43.168Z,94784.97
2022-12-03T21:52:11.169Z,94787.13
2022-12-03T21:54:40.356Z,94797.47
2022-12-03T21:57:08.163Z,94794.69
2022-12-03T21:59:36.028Z,94790.00
2022-12-03T22:02:03.950Z,94786.75
2022-12-03T22:04:32.045Z,94792.72
2022-12-03T22:06:59.879Z,94782.13
2022-12-03T22:09:27.648Z,94791.28
2022-12-03T22:11:59.359Z,94778.19
2022-12-03T22:14:27.468Z,94791.88
2022-12-03T22:16:55.367Z,94791.81
2022-12-03T22:19:24.085Z,94788.59
2022-12-03T22:21:51.873Z,94793.16
2022-12-03T22:24:20.152Z,94796.78
2022-12-03T22:26:48.216Z,94795.25
2022-12-03T22:29:17.418Z,94779.03
2022-12-03T22:31:45.455Z,94775.72
2022-12-03T22:34:13.783Z,94772.69
2022-12-03T22:36:41.659Z,94768.00
2022-12-03T22:39:09.435Z,94768.47
2022-12-03T22:41:37.193Z,94777.34
2022-12-03T22:44:04.990Z,94769.50
2022-12-03T22:46:34.295Z,94770.94
2022-12-03T22:49:07.121Z,94781.28
2022-12-03T22:51:35.608Z,94765.06
2022-12-03T22:54:03.719Z,94760.44
2022-12-03T22:56:32.023Z,94758.16
2022-12-03T22:59:00.158Z,94758.63
2022-12-03T23:01:29.892Z,94760.22
2022-12-03T23:03:59.381Z,94758.56
2022-12-03T23:06:27.721Z,94754.03
2022-12-03T23:08:56.063Z,94749.56
2022-12-03T23:11:23.965Z,94739.28
2022-12-03T23:13:51.940Z,94746.78
2022-12-03T23:16:22.268Z,94731.91
2022-12-03T23:18:50.342Z,94745.31
2022-12-03T23:21:28.839Z,94732.78
2022-12-03T23:23:57.477Z,94728.97
2022-12-03T23:26:25.308Z,94736.63
2022-12-03T23:28:53.045Z,94731.91
2022-12-03T23:31:23.540Z,94731.78
2022-12-03T23:33:52.285Z,94729.13
2022-12-03T23:36:22.626Z,94724.84
2022-12-03T23:38:50.758Z,94719.25
2022-12-03T23:41:21.268Z,94712.63
2022-12-03T23:43:50.023Z,94710.66
2022-12-03T23:46:19.391Z,94705.69
2022-12-03T23:48:47.285Z,94704.19
2022-12-03T23:51:17.955Z,94702.16
2022-12-03T23:53:47.897Z,94700.72
2022-12-03T23:56:17.685Z,94700.72
2022-12-03T23:58:46.009Z,94708.78
